Flight Track Log - Related Links

Times and Time Zones

All times are in EDT time to prevent confusion due to time zone crossing. See the AAY811 flight status page for this flight to view local times or setup timezone preferences in your user account.

Time Position Orientation Groundspeed Altitude Reporting Facility
EDT Latitude Longitude Course Direction KTS MPH feet Rate Location/Type
Thu 09:05:20 PM 35.2872 -82.4994 181° South 278 320 6,700  Level Atlanta Center
Thu 09:06:20 PM 35.2097 -82.4806 169° South 292 336 9,500 2,050 Climbing Atlanta Center
Thu 09:07:20 PM 35.1303 -82.4617 169° South 307 353 10,800 2,025 Climbing Atlanta Center
Thu 09:08:00 PM 35.0157 -82.5015 181° South  Level Estimated
Thu 09:11:46 PM 34.6562 -82.3611 170° South 409 471 20,500  Level FlightAware ADS-B (EFHN)
Thu 09:13:54 PM 34.4160 -82.3103 170° South 422 486 23,700 1,639 Climbing FlightAware ADS-B (EFHN)
Thu 09:15:11 PM 34.2760 -82.2808 170° South 422 486 26,100 1,424 Climbing FlightAware ADS-B (EFHN)
Thu 09:15:52 PM 34.1985 -82.2671 170° South 422 486 26,500 911 Climbing FlightAware ADS-B (EFHN)
Thu 09:18:55 PM 33.8230 -82.2968 184° South 457 526 29,500 971 Climbing FlightAware ADS-B (EFHN)
Thu 09:19:53 PM 33.6981 -82.3069 184° South 464 534 30,400 867 Climbing FlightAware ADS-B (EFHN)
Thu 09:20:25 PM 33.6329 -82.3121 184° South 472 543 30,800 828 Climbing FlightAware ADS-B (EFHN)
Thu 09:21:20 PM 33.5131 -82.3247 184° South 464 534 31,600 1,043 Climbing Atlanta Center
Thu 09:22:20 PM 33.3794 -82.3347 184° South 469 540 32,800 1,200 Climbing Atlanta Center
Thu 09:23:20 PM 33.2669 -82.3419 183° South 469 540 34,000 1,050 Climbing Atlanta Center
Thu 09:24:20 PM 33.1356 -82.3519 184° South 469 540 34,900 1,000 Climbing Atlanta Center
Thu 09:25:20 PM 33.0083 -82.3619 184° South 469 540 36,000 1,050 Climbing Atlanta Center
Thu 09:26:20 PM 32.8811 -82.3692 183° South 464 534 37,000 850 Climbing Atlanta Center
Thu 09:27:20 PM 32.7539 -82.3817 185° South 464 534 37,700 364 Climbing Atlanta Center
Thu 09:29:05 PM 32.5206 -82.3972 183° South 464 534 38,000 109 Climbing Jacksonville Center
Thu 09:30:05 PM 32.3953 -82.4103 185° South 464 534 38,000  Level Jacksonville Center
Thu 09:31:05 PM 32.2700 -82.4183 183° South 464 534 38,000  Level Jacksonville Center
Thu 09:32:05 PM 32.1447 -82.4264 183° South 458 527 38,000  Level Jacksonville Center
Thu 09:33:05 PM 32.0175 -82.4269 180° South 458 527 38,000  Level Jacksonville Center
Thu 09:34:05 PM 31.8900 -82.4203 177° South 458 527 38,000  Level Jacksonville Center
Thu 09:40:11 PM 31.1179 -82.4007 179° South 449 517 38,000  Level FlightAware ADS-B
Thu 09:41:08 PM 31.0068 -82.3976 179° South 449 517 38,000  Level FlightAware ADS-B
Thu 09:41:49 PM 30.9134 -82.3949 179° South 450 518 38,000  Level FlightAware ADS-B
Thu 09:42:41 PM 30.8092 -82.3921 179° South 450 518 38,000  Level FlightAware ADS-B
Thu 09:43:20 PM 30.7277 -82.3898 179° South 449 517 38,000  Level FlightAware ADS-B
Thu 09:44:49 PM 30.5461 -82.3847 179° South 449 517 38,000  Level FlightAware ADS-B
Thu 09:45:29 PM 30.4551 -82.3821 179° South 450 518 38,000 -107 Level FlightAware ADS-B
Thu 09:46:41 PM 30.3052 -82.3778 179° South 450 518 37,800 -429 Descending FlightAware ADS-B
Thu 09:47:21 PM 30.2206 -82.3755 179° South 455 524 37,200 -987 Descending FlightAware ADS-B
Thu 09:48:00 PM 30.1379 -82.3732 179° South 464 534 36,500 -987 Descending FlightAware ADS-B
Thu 09:48:40 PM 30.0524 -82.3710 179° South 462 532 35,900 -963 Descending FlightAware ADS-B
Thu 09:49:21 PM 29.9645 -82.3686 179° South 464 534 35,200 -963 Descending FlightAware ADS-B
Thu 09:50:01 PM 29.8844 -82.3664 179° South 467 537 34,600 -1,244 Descending FlightAware ADS-B
Thu 09:50:43 PM 29.7879 -82.3636 179° South 462 532 33,500 -2,927 Descending FlightAware ADS-B
Thu 09:51:23 PM 29.7014 -82.3613 179° South 455 524 30,600 -4,364 Descending FlightAware ADS-B
Thu 09:52:00 PM 29.6239 -82.3591 179° South 446 513 27,900 -4,385 Descending FlightAware ADS-B
Thu 09:52:15 PM 29.5983 -82.3584 177° South 447 514 26,800 -2,235 Descending FlightAware ADS-B
Thu 09:52:51 PM 29.5189 -82.3499 174° South 448 516 26,000 -716 Descending FlightAware ADS-B
Thu 09:53:22 PM 29.4587 -82.3427 174° South 451 519 26,000  Level FlightAware ADS-B
Thu 09:53:53 PM 29.3921 -82.3348 174° South 449 517 26,000 -387 Level FlightAware ADS-B
Thu 09:54:24 PM 29.3253 -82.3268 174° South 449 517 25,600 -1,750 Descending FlightAware ADS-B
Thu 09:55:05 PM 29.2421 -82.3169 174° South 440 506 23,900 -2,959 Descending FlightAware ADS-B
Thu 09:55:37 PM 29.1793 -82.3093 174° South 429 494 22,000 -4,167 Descending FlightAware ADS-B
Thu 09:56:17 PM 29.0988 -82.2995 174° South 422 486 18,900 -4,250 Descending FlightAware ADS-B
Thu 09:56:49 PM 29.0398 -82.2927 174° South 406 467 16,900 -4,083 Descending FlightAware ADS-B
Thu 09:57:29 PM 28.9697 -82.2846 174° South 404 465 14,000 -3,250 Descending FlightAware ADS-B
Thu 09:58:01 PM 28.9048 -82.2769 174° South 387 445 13,000 -833 Descending FlightAware ADS-B
Thu 09:58:41 PM 28.8377 -82.2689 174° South 335 386 13,000  Level FlightAware ADS-B
Thu 09:59:11 PM 28.7935 -82.2638 174° South 310 357 13,000  Level FlightAware ADS-B
Thu 09:59:53 PM 28.7819 -82.2624 179° South 305 351 13,000 -395 Level FlightAware ADS-B
Thu 10:00:27 PM 28.6860 -82.2569 179° South 304 350 12,500 -917 Descending FlightAware ADS-B
Thu 10:01:05 PM 28.6776 -82.2567 179° South 297 342 11,900 -987 Descending FlightAware ADS-B
Thu 10:01:46 PM 28.6157 -82.2565 212° Southwest 291 335 11,200 -914 Descending FlightAware ADS-B
Thu 10:02:50 PM 28.5167 -82.3167 212° Southwest 290 334 10,300 -877 Descending Tampa TRACON
Thu 10:03:56 PM 28.4333 -82.3833 215° Southwest 287 330 9,300 -952 Descending Tampa TRACON
Thu 10:04:56 PM 28.3667 -82.4333 213° Southwest 282 325 8,300 -1,000 Descending Tampa TRACON
Thu 10:05:50 PM 28.3167 -82.4667 210° Southwest 282 325 7,400 -1,000 Descending Tampa TRACON
Thu 10:06:50 PM 28.2500 -82.5167 213° Southwest 279 321 6,400 -1,000 Descending Tampa TRACON
Thu 10:07:50 PM 28.1833 -82.5667 213° Southwest 270 311 5,400 -1,000 Descending Tampa TRACON
Thu 10:08:44 PM 28.1333 -82.6000 210° Southwest 242 278 4,500 -1,053 Descending Tampa TRACON
Thu 10:09:44 PM 28.0833 -82.6333 210° Southwest 217 250 3,400 -1,150 Descending Tampa TRACON
Thu 10:10:44 PM 28.0333 -82.6500 196° South 165 190 2,200 -900 Descending Tampa TRACON
Thu 10:11:44 PM 28.0000 -82.6833 221° Southwest 154 177 1,600 -700 Descending Tampa TRACON
Thu 10:12:44 PM 27.9667 -82.7000 204° Southwest 131 151 800 -500 Descending Tampa TRACON
Thu 10:14:20 PM 27.8992 -82.6922 174° South 148 170 300 -313 Descending Miami Center
Thu 10:16:00 PM 27.9000 -82.6833 North  Level FlightAware Approximate

Login

Don't have an account? Register now (free) for customized features, flight alerts, and more!